Terminal Aerodrome Forecast
Issued by NWS Charleston, SC

Home | Current Version | Previous Version | Text Only | Print | Product List | Glossary On
Versions: 1 2 3 4 5 6 7 8 9 10 11 12 13 14 15 16 17 18 19
254
FTUS42 KCHS 221127
TAFCHS
TAF
KCHS 221127Z 2212/2312 03011G17KT P6SM BKN050
     FM221700 04009KT P6SM SCT050
     FM230000 06005KT P6SM SKC=

USA.gov is the U.S. government's official web portal to all federal, state and local government web resources and services.